sensor_id;sensor_type;location;lat;lon;timestamp;temperature;humidity
3705;DHT22;1868;48.918;9.438;2024-01-30T00:01:17;1.90;97.40
3705;DHT22;1868;48.918;9.438;2024-01-30T00:03:46;1.80;97.40
3705;DHT22;1868;48.918;9.438;2024-01-30T00:06:19;1.80;97.40
3705;DHT22;1868;48.918;9.438;2024-01-30T00:08:48;1.80;97.40
3705;DHT22;1868;48.918;9.438;2024-01-30T00:11:18;1.80;97.40
3705;DHT22;1868;48.918;9.438;2024-01-30T00:13:47;1.90;97.40
3705;DHT22;1868;48.918;9.438;2024-01-30T00:16:22;1.90;97.40
3705;DHT22;1868;48.918;9.438;2024-01-30T00:18:53;1.90;97.40
3705;DHT22;1868;48.918;9.438;2024-01-30T00:21:22;1.90;97.40
3705;DHT22;1868;48.918;9.438;2024-01-30T00:23:51;1.90;97.40
3705;DHT22;1868;48.918;9.438;2024-01-30T00:26:21;1.90;97.40
3705;DHT22;1868;48.918;9.438;2024-01-30T00:28:50;1.90;97.40
3705;DHT22;1868;48.918;9.438;2024-01-30T00:31:19;1.90;97.40
3705;DHT22;1868;48.918;9.438;2024-01-30T00:33:49;1.90;97.40
3705;DHT22;1868;48.918;9.438;2024-01-30T00:36:19;2.00;97.40
3705;DHT22;1868;48.918;9.438;2024-01-30T00:38:48;1.90;97.40
3705;DHT22;1868;48.918;9.438;2024-01-30T00:41:18;1.90;97.40
3705;DHT22;1868;48.918;9.438;2024-01-30T00:43:48;1.90;97.40
3705;DHT22;1868;48.918;9.438;2024-01-30T00:46:18;1.90;97.40
3705;DHT22;1868;48.918;9.438;2024-01-30T00:48:48;1.80;97.40
3705;DHT22;1868;48.918;9.438;2024-01-30T00:51:18;1.80;97.40
3705;DHT22;1868;48.918;9.438;2024-01-30T00:53:48;1.80;97.40
3705;DHT22;1868;48.918;9.438;2024-01-30T00:56:19;1.80;97.40
3705;DHT22;1868;48.918;9.438;2024-01-30T00:58:49;1.70;97.40
3705;DHT22;1868;48.918;9.438;2024-01-30T01:01:20;1.80;97.40
3705;DHT22;1868;48.918;9.438;2024-01-30T01:03:48;1.80;97.40
3705;DHT22;1868;48.918;9.438;2024-01-30T01:06:19;1.80;97.40
3705;DHT22;1868;48.918;9.438;2024-01-30T01:08:49;1.80;97.40
3705;DHT22;1868;48.918;9.438;2024-01-30T01:11:18;1.80;97.40
3705;DHT22;1868;48.918;9.438;2024-01-30T01:13:49;1.80;97.40
3705;DHT22;1868;48.918;9.438;2024-01-30T01:16:18;1.80;97.40
3705;DHT22;1868;48.918;9.438;2024-01-30T01:18:46;1.80;97.40
3705;DHT22;1868;48.918;9.438;2024-01-30T01:21:15;1.80;97.40
3705;DHT22;1868;48.918;9.438;2024-01-30T01:23:44;1.80;97.40
3705;DHT22;1868;48.918;9.438;2024-01-30T01:26:13;1.90;97.40
3705;DHT22;1868;48.918;9.438;2024-01-30T01:28:44;1.90;97.40
3705;DHT22;1868;48.918;9.438;2024-01-30T01:31:15;1.90;97.40
3705;DHT22;1868;48.918;9.438;2024-01-30T01:33:45;1.90;97.40
3705;DHT22;1868;48.918;9.438;2024-01-30T01:36:15;1.90;97.40
3705;DHT22;1868;48.918;9.438;2024-01-30T01:38:44;1.80;97.40
3705;DHT22;1868;48.918;9.438;2024-01-30T01:41:13;1.80;97.40
3705;DHT22;1868;48.918;9.438;2024-01-30T01:43:42;1.90;97.40
3705;DHT22;1868;48.918;9.438;2024-01-30T01:46:11;1.90;97.40
3705;DHT22;1868;48.918;9.438;2024-01-30T01:48:42;1.90;97.40
3705;DHT22;1868;48.918;9.438;2024-01-30T01:51:15;1.90;97.40
3705;DHT22;1868;48.918;9.438;2024-01-30T01:53:47;1.90;97.40
3705;DHT22;1868;48.918;9.438;2024-01-30T01:56:15;2.00;97.40
3705;DHT22;1868;48.918;9.438;2024-01-30T01:58:46;2.00;97.40
3705;DHT22;1868;48.918;9.438;2024-01-30T02:01:17;1.90;97.40
3705;DHT22;1868;48.918;9.438;2024-01-30T02:03:48;1.90;97.40
3705;DHT22;1868;48.918;9.438;2024-01-30T02:06:17;1.90;97.40
3705;DHT22;1868;48.918;9.438;2024-01-30T02:08:46;1.90;97.40
3705;DHT22;1868;48.918;9.438;2024-01-30T02:11:15;1.90;97.40
3705;DHT22;1868;48.918;9.438;2024-01-30T02:13:45;1.90;97.40
3705;DHT22;1868;48.918;9.438;2024-01-30T02:16:14;1.80;97.40
3705;DHT22;1868;48.918;9.438;2024-01-30T02:18:44;1.80;97.40
3705;DHT22;1868;48.918;9.438;2024-01-30T02:21:17;1.70;97.40
3705;DHT22;1868;48.918;9.438;2024-01-30T02:23:48;1.70;97.40
3705;DHT22;1868;48.918;9.438;2024-01-30T02:26:17;1.70;97.40
3705;DHT22;1868;48.918;9.438;2024-01-30T02:28:46;1.60;97.40
3705;DHT22;1868;48.918;9.438;2024-01-30T02:31:15;1.60;97.40
3705;DHT22;1868;48.918;9.438;2024-01-30T02:33:44;1.60;97.40
3705;DHT22;1868;48.918;9.438;2024-01-30T02:36:13;1.60;97.40
3705;DHT22;1868;48.918;9.438;2024-01-30T02:38:44;1.60;97.40
3705;DHT22;1868;48.918;9.438;2024-01-30T02:41:15;1.60;97.40
3705;DHT22;1868;48.918;9.438;2024-01-30T02:43:45;1.60;97.40
3705;DHT22;1868;48.918;9.438;2024-01-30T02:46:15;1.50;97.40
3705;DHT22;1868;48.918;9.438;2024-01-30T02:48:44;1.50;97.40
3705;DHT22;1868;48.918;9.438;2024-01-30T02:51:13;1.50;97.40
3705;DHT22;1868;48.918;9.438;2024-01-30T02:53:44;1.50;97.40
3705;DHT22;1868;48.918;9.438;2024-01-30T02:56:14;1.40;97.40
3705;DHT22;1868;48.918;9.438;2024-01-30T02:58:44;1.40;97.40
3705;DHT22;1868;48.918;9.438;2024-01-30T03:01:13;1.40;97.40
3705;DHT22;1868;48.918;9.438;2024-01-30T03:03:42;1.40;97.40
3705;DHT22;1868;48.918;9.438;2024-01-30T03:06:11;1.40;97.40
3705;DHT22;1868;48.918;9.438;2024-01-30T03:08:39;1.40;97.40
3705;DHT22;1868;48.918;9.438;2024-01-30T03:11:09;1.40;97.40
3705;DHT22;1868;48.918;9.438;2024-01-30T03:13:38;1.40;97.40
3705;DHT22;1868;48.918;9.438;2024-01-30T03:16:08;1.40;97.40
3705;DHT22;1868;48.918;9.438;2024-01-30T03:18:38;1.30;97.40
3705;DHT22;1868;48.918;9.438;2024-01-30T03:21:08;1.30;97.40
3705;DHT22;1868;48.918;9.438;2024-01-30T03:23:50;1.30;97.40
3705;DHT22;1868;48.918;9.438;2024-01-30T03:26:25;1.20;97.40
3705;DHT22;1868;48.918;9.438;2024-01-30T03:28:55;1.20;97.40
3705;DHT22;1868;48.918;9.438;2024-01-30T03:31:27;1.10;97.40
3705;DHT22;1868;48.918;9.438;2024-01-30T03:33:59;1.10;97.40
3705;DHT22;1868;48.918;9.438;2024-01-30T03:36:31;1.10;97.40
3705;DHT22;1868;48.918;9.438;2024-01-30T03:39:03;1.10;97.40
3705;DHT22;1868;48.918;9.438;2024-01-30T03:41:33;1.10;97.40
3705;DHT22;1868;48.918;9.438;2024-01-30T03:44:06;1.10;97.40
3705;DHT22;1868;48.918;9.438;2024-01-30T03:46:39;1.00;97.40
3705;DHT22;1868;48.918;9.438;2024-01-30T03:49:11;1.00;97.40
3705;DHT22;1868;48.918;9.438;2024-01-30T03:51:41;1.00;97.40
3705;DHT22;1868;48.918;9.438;2024-01-30T03:54:12;1.00;97.40
3705;DHT22;1868;48.918;9.438;2024-01-30T03:56:42;0.90;97.40
3705;DHT22;1868;48.918;9.438;2024-01-30T03:59:11;0.90;97.40
3705;DHT22;1868;48.918;9.438;2024-01-30T04:01:46;0.90;97.40
3705;DHT22;1868;48.918;9.438;2024-01-30T04:04:20;0.90;97.40
3705;DHT22;1868;48.918;9.438;2024-01-30T04:06:53;0.90;97.40
3705;DHT22;1868;48.918;9.438;2024-01-30T04:09:24;0.90;97.40
3705;DHT22;1868;48.918;9.438;2024-01-30T04:11:57;0.90;97.40
3705;DHT22;1868;48.918;9.438;2024-01-30T04:14:26;0.90;97.40
3705;DHT22;1868;48.918;9.438;2024-01-30T04:16:54;0.90;97.40
3705;DHT22;1868;48.918;9.438;2024-01-30T04:19:28;1.00;97.40
3705;DHT22;1868;48.918;9.438;2024-01-30T04:22:02;1.00;97.40
3705;DHT22;1868;48.918;9.438;2024-01-30T04:24:33;1.00;97.40
3705;DHT22;1868;48.918;9.438;2024-01-30T04:27:05;1.00;97.40
3705;DHT22;1868;48.918;9.438;2024-01-30T04:29:34;1.00;97.40
3705;DHT22;1868;48.918;9.438;2024-01-30T04:32:06;1.00;97.40
3705;DHT22;1868;48.918;9.438;2024-01-30T04:34:43;1.00;97.40
3705;DHT22;1868;48.918;9.438;2024-01-30T04:37:12;1.00;97.40
3705;DHT22;1868;48.918;9.438;2024-01-30T04:39:41;1.00;97.40
3705;DHT22;1868;48.918;9.438;2024-01-30T04:42:12;1.10;97.40
3705;DHT22;1868;48.918;9.438;2024-01-30T04:44:41;1.10;97.40
3705;DHT22;1868;48.918;9.438;2024-01-30T04:47:09;1.00;97.40
3705;DHT22;1868;48.918;9.438;2024-01-30T04:49:39;1.00;97.40
3705;DHT22;1868;48.918;9.438;2024-01-30T04:52:10;1.00;97.40
3705;DHT22;1868;48.918;9.438;2024-01-30T04:54:39;1.00;97.40
3705;DHT22;1868;48.918;9.438;2024-01-30T04:57:19;0.90;97.40
3705;DHT22;1868;48.918;9.438;2024-01-30T04:59:47;0.90;97.40
3705;DHT22;1868;48.918;9.438;2024-01-30T05:02:19;0.90;97.40
3705;DHT22;1868;48.918;9.438;2024-01-30T05:04:51;0.90;97.40
3705;DHT22;1868;48.918;9.438;2024-01-30T05:07:20;0.80;97.40
3705;DHT22;1868;48.918;9.438;2024-01-30T05:09:59;0.90;97.40
3705;DHT22;1868;48.918;9.438;2024-01-30T05:12:35;0.90;97.40
3705;DHT22;1868;48.918;9.438;2024-01-30T05:15:08;0.90;97.40
3705;DHT22;1868;48.918;9.438;2024-01-30T05:17:39;0.90;97.40
3705;DHT22;1868;48.918;9.438;2024-01-30T05:20:10;0.90;97.40
3705;DHT22;1868;48.918;9.438;2024-01-30T05:22:41;0.90;97.40
3705;DHT22;1868;48.918;9.438;2024-01-30T05:25:13;0.90;97.40
3705;DHT22;1868;48.918;9.438;2024-01-30T05:27:45;0.90;97.40
3705;DHT22;1868;48.918;9.438;2024-01-30T05:30:17;0.90;97.40
3705;DHT22;1868;48.918;9.438;2024-01-30T05:32:48;0.90;97.40
3705;DHT22;1868;48.918;9.438;2024-01-30T05:35:18;0.90;97.40
3705;DHT22;1868;48.918;9.438;2024-01-30T05:37:53;0.80;97.40
3705;DHT22;1868;48.918;9.438;2024-01-30T05:40:26;0.80;97.40
3705;DHT22;1868;48.918;9.438;2024-01-30T05:42:57;0.80;97.40
3705;DHT22;1868;48.918;9.438;2024-01-30T05:45:28;0.80;97.40
3705;DHT22;1868;48.918;9.438;2024-01-30T05:47:56;0.80;97.40
3705;DHT22;1868;48.918;9.438;2024-01-30T05:50:25;0.80;97.40
3705;DHT22;1868;48.918;9.438;2024-01-30T05:52:54;0.70;97.40
3705;DHT22;1868;48.918;9.438;2024-01-30T05:55:24;0.70;97.40
3705;DHT22;1868;48.918;9.438;2024-01-30T05:57:57;0.70;97.40
3705;DHT22;1868;48.918;9.438;2024-01-30T06:00:29;0.70;97.40
3705;DHT22;1868;48.918;9.438;2024-01-30T06:02:58;0.70;97.40
3705;DHT22;1868;48.918;9.438;2024-01-30T06:05:27;0.70;97.40
3705;DHT22;1868;48.918;9.438;2024-01-30T06:07:56;0.70;97.40
3705;DHT22;1868;48.918;9.438;2024-01-30T06:10:25;0.70;97.40
3705;DHT22;1868;48.918;9.438;2024-01-30T06:12:54;0.70;97.40
3705;DHT22;1868;48.918;9.438;2024-01-30T06:15:25;0.70;97.40
3705;DHT22;1868;48.918;9.438;2024-01-30T06:17:54;0.70;97.40
3705;DHT22;1868;48.918;9.438;2024-01-30T06:20:23;0.70;97.40
3705;DHT22;1868;48.918;9.438;2024-01-30T06:22:52;0.70;97.40
3705;DHT22;1868;48.918;9.438;2024-01-30T06:25:21;0.70;97.40
3705;DHT22;1868;48.918;9.438;2024-01-30T06:27:50;0.70;97.40
3705;DHT22;1868;48.918;9.438;2024-01-30T06:30:18;0.70;97.40
3705;DHT22;1868;48.918;9.438;2024-01-30T06:32:49;0.70;97.40
3705;DHT22;1868;48.918;9.438;2024-01-30T06:35:18;0.70;97.40
3705;DHT22;1868;48.918;9.438;2024-01-30T06:37:48;0.70;97.40
3705;DHT22;1868;48.918;9.438;2024-01-30T06:40:18;0.70;97.40
3705;DHT22;1868;48.918;9.438;2024-01-30T06:42:50;0.80;97.40
3705;DHT22;1868;48.918;9.438;2024-01-30T06:45:20;0.80;97.40
3705;DHT22;1868;48.918;9.438;2024-01-30T06:47:51;0.80;97.40
3705;DHT22;1868;48.918;9.438;2024-01-30T06:50:23;0.90;97.40
3705;DHT22;1868;48.918;9.438;2024-01-30T06:52:55;0.90;97.40
3705;DHT22;1868;48.918;9.438;2024-01-30T06:55:25;0.90;97.40
3705;DHT22;1868;48.918;9.438;2024-01-30T06:57:54;0.90;97.40
3705;DHT22;1868;48.918;9.438;2024-01-30T07:00:22;0.90;97.40
3705;DHT22;1868;48.918;9.438;2024-01-30T07:02:58;0.90;97.40
3705;DHT22;1868;48.918;9.438;2024-01-30T07:05:31;0.90;97.40
3705;DHT22;1868;48.918;9.438;2024-01-30T07:08:04;0.90;97.40
3705;DHT22;1868;48.918;9.438;2024-01-30T07:10:34;0.90;97.40
3705;DHT22;1868;48.918;9.438;2024-01-30T07:13:06;1.00;97.40
3705;DHT22;1868;48.918;9.438;2024-01-30T07:15:38;1.00;97.40
3705;DHT22;1868;48.918;9.438;2024-01-30T07:18:09;1.10;97.40
3705;DHT22;1868;48.918;9.438;2024-01-30T07:20:38;1.10;97.40
3705;DHT22;1868;48.918;9.438;2024-01-30T07:23:16;1.20;97.40
3705;DHT22;1868;48.918;9.438;2024-01-30T07:25:50;1.20;97.40
3705;DHT22;1868;48.918;9.438;2024-01-30T07:28:21;1.30;97.40
3705;DHT22;1868;48.918;9.438;2024-01-30T07:30:50;1.40;97.40
3705;DHT22;1868;48.918;9.438;2024-01-30T07:33:20;1.50;97.40
3705;DHT22;1868;48.918;9.438;2024-01-30T07:35:49;1.60;97.40
3705;DHT22;1868;48.918;9.438;2024-01-30T07:38:18;1.60;97.40
3705;DHT22;1868;48.918;9.438;2024-01-30T07:40:47;1.60;97.40
3705;DHT22;1868;48.918;9.438;2024-01-30T07:43:16;1.70;97.40
3705;DHT22;1868;48.918;9.438;2024-01-30T07:45:47;1.70;97.40
3705;DHT22;1868;48.918;9.438;2024-01-30T07:48:17;1.80;97.40
3705;DHT22;1868;48.918;9.438;2024-01-30T07:50:48;1.80;97.40
3705;DHT22;1868;48.918;9.438;2024-01-30T07:53:19;1.90;97.40
3705;DHT22;1868;48.918;9.438;2024-01-30T07:55:50;2.00;97.40
3705;DHT22;1868;48.918;9.438;2024-01-30T07:58:19;2.00;97.40
3705;DHT22;1868;48.918;9.438;2024-01-30T08:00:48;2.10;97.40
3705;DHT22;1868;48.918;9.438;2024-01-30T08:03:18;2.20;97.40
3705;DHT22;1868;48.918;9.438;2024-01-30T08:05:48;2.30;97.40
3705;DHT22;1868;48.918;9.438;2024-01-30T08:08:17;2.50;97.40
3705;DHT22;1868;48.918;9.438;2024-01-30T08:10:49;2.60;97.40
3705;DHT22;1868;48.918;9.438;2024-01-30T08:13:19;3.00;97.40
3705;DHT22;1868;48.918;9.438;2024-01-30T08:15:49;3.40;97.40
3705;DHT22;1868;48.918;9.438;2024-01-30T08:18:17;3.70;97.40
3705;DHT22;1868;48.918;9.438;2024-01-30T08:20:48;4.00;97.40
3705;DHT22;1868;48.918;9.438;2024-01-30T08:23:22;4.30;97.40
3705;DHT22;1868;48.918;9.438;2024-01-30T08:25:51;4.80;97.40
3705;DHT22;1868;48.918;9.438;2024-01-30T08:28:21;5.30;97.40
3705;DHT22;1868;48.918;9.438;2024-01-30T08:30:51;5.70;97.40
3705;DHT22;1868;48.918;9.438;2024-01-30T08:33:20;6.00;97.40
3705;DHT22;1868;48.918;9.438;2024-01-30T08:36:00;6.50;97.40
3705;DHT22;1868;48.918;9.438;2024-01-30T08:38:29;7.00;97.40
3705;DHT22;1868;48.918;9.438;2024-01-30T08:41:01;7.40;97.40
3705;DHT22;1868;48.918;9.438;2024-01-30T08:43:33;7.70;97.40
3705;DHT22;1868;48.918;9.438;2024-01-30T08:46:06;8.30;97.40
3705;DHT22;1868;48.918;9.438;2024-01-30T08:48:36;8.60;97.40
3705;DHT22;1868;48.918;9.438;2024-01-30T08:51:08;8.90;97.40
3705;DHT22;1868;48.918;9.438;2024-01-30T08:53:36;9.40;97.40
3705;DHT22;1868;48.918;9.438;2024-01-30T08:56:07;9.60;97.40
3705;DHT22;1868;48.918;9.438;2024-01-30T08:58:36;10.10;97.40
3705;DHT22;1868;48.918;9.438;2024-01-30T09:01:06;10.50;97.40
3705;DHT22;1868;48.918;9.438;2024-01-30T09:03:37;10.90;97.40
3705;DHT22;1868;48.918;9.438;2024-01-30T09:06:10;11.40;97.40
3705;DHT22;1868;48.918;9.438;2024-01-30T09:08:40;11.70;97.40
3705;DHT22;1868;48.918;9.438;2024-01-30T09:11:10;11.90;97.40
3705;DHT22;1868;48.918;9.438;2024-01-30T09:13:40;12.20;97.40
3705;DHT22;1868;48.918;9.438;2024-01-30T09:16:10;12.40;97.40
3705;DHT22;1868;48.918;9.438;2024-01-30T09:18:39;12.20;97.40
3705;DHT22;1868;48.918;9.438;2024-01-30T09:21:17;12.20;97.40
3705;DHT22;1868;48.918;9.438;2024-01-30T09:23:49;11.90;97.40
3705;DHT22;1868;48.918;9.438;2024-01-30T09:26:20;11.70;97.40
3705;DHT22;1868;48.918;9.438;2024-01-30T09:28:53;11.40;97.40
3705;DHT22;1868;48.918;9.438;2024-01-30T09:31:24;11.20;97.40
3705;DHT22;1868;48.918;9.438;2024-01-30T09:33:53;11.00;97.40
3705;DHT22;1868;48.918;9.438;2024-01-30T09:36:25;10.90;97.40
3705;DHT22;1868;48.918;9.438;2024-01-30T09:38:58;10.90;97.40
3705;DHT22;1868;48.918;9.438;2024-01-30T09:41:33;10.70;97.40
3705;DHT22;1868;48.918;9.438;2024-01-30T09:44:06;10.80;97.40
3705;DHT22;1868;48.918;9.438;2024-01-30T09:46:38;10.80;97.40
3705;DHT22;1868;48.918;9.438;2024-01-30T09:49:08;10.80;97.40
3705;DHT22;1868;48.918;9.438;2024-01-30T09:51:41;10.90;97.40
3705;DHT22;1868;48.918;9.438;2024-01-30T09:54:18;10.90;97.40
3705;DHT22;1868;48.918;9.438;2024-01-30T09:56:51;10.80;97.40
3705;DHT22;1868;48.918;9.438;2024-01-30T09:59:20;10.90;97.40
3705;DHT22;1868;48.918;9.438;2024-01-30T10:01:50;11.40;97.40
3705;DHT22;1868;48.918;9.438;2024-01-30T10:04:19;12.10;97.40
3705;DHT22;1868;48.918;9.438;2024-01-30T10:06:51;12.50;97.40
3705;DHT22;1868;48.918;9.438;2024-01-30T10:09:21;13.10;97.40
3705;DHT22;1868;48.918;9.438;2024-01-30T10:11:54;13.50;97.40
3705;DHT22;1868;48.918;9.438;2024-01-30T10:14:26;13.80;97.40
3705;DHT22;1868;48.918;9.438;2024-01-30T10:16:55;13.80;97.40
3705;DHT22;1868;48.918;9.438;2024-01-30T10:19:25;13.70;97.40
3705;DHT22;1868;48.918;9.438;2024-01-30T10:21:56;13.60;97.40
3705;DHT22;1868;48.918;9.438;2024-01-30T10:24:26;13.50;97.40
3705;DHT22;1868;48.918;9.438;2024-01-30T10:26:56;13.50;97.40
3705;DHT22;1868;48.918;9.438;2024-01-30T10:29:28;13.50;97.40
3705;DHT22;1868;48.918;9.438;2024-01-30T10:32:00;13.70;97.40
3705;DHT22;1868;48.918;9.438;2024-01-30T10:34:30;13.80;97.40
3705;DHT22;1868;48.918;9.438;2024-01-30T10:37:07;13.90;97.40
3705;DHT22;1868;48.918;9.438;2024-01-30T10:39:44;14.30;97.40
3705;DHT22;1868;48.918;9.438;2024-01-30T10:42:15;14.50;97.40
3705;DHT22;1868;48.918;9.438;2024-01-30T10:44:52;14.90;97.40
3705;DHT22;1868;48.918;9.438;2024-01-30T10:47:26;15.10;97.40
3705;DHT22;1868;48.918;9.438;2024-01-30T10:49:57;15.00;97.40
3705;DHT22;1868;48.918;9.438;2024-01-30T10:52:28;14.80;97.40
3705;DHT22;1868;48.918;9.438;2024-01-30T10:54:58;14.50;97.40
3705;DHT22;1868;48.918;9.438;2024-01-30T10:57:28;14.40;97.40
3705;DHT22;1868;48.918;9.438;2024-01-30T10:59:57;14.20;97.40
3705;DHT22;1868;48.918;9.438;2024-01-30T11:02:28;13.90;97.40
3705;DHT22;1868;48.918;9.438;2024-01-30T11:04:58;13.80;97.40
3705;DHT22;1868;48.918;9.438;2024-01-30T11:07:29;13.60;97.40
3705;DHT22;1868;48.918;9.438;2024-01-30T11:10:04;13.60;97.40
3705;DHT22;1868;48.918;9.438;2024-01-30T11:12:39;13.60;97.40
3705;DHT22;1868;48.918;9.438;2024-01-30T11:15:12;13.70;97.40
3705;DHT22;1868;48.918;9.438;2024-01-30T11:17:49;13.80;97.40
3705;DHT22;1868;48.918;9.438;2024-01-30T11:20:21;13.80;97.40
3705;DHT22;1868;48.918;9.438;2024-01-30T11:22:55;13.90;97.40
3705;DHT22;1868;48.918;9.438;2024-01-30T11:25:25;13.90;97.40
3705;DHT22;1868;48.918;9.438;2024-01-30T11:27:55;13.80;97.40
3705;DHT22;1868;48.918;9.438;2024-01-30T11:30:26;13.80;97.40
3705;DHT22;1868;48.918;9.438;2024-01-30T11:33:03;13.80;97.40
3705;DHT22;1868;48.918;9.438;2024-01-30T11:35:36;13.80;97.40
3705;DHT22;1868;48.918;9.438;2024-01-30T11:38:10;13.80;97.40
3705;DHT22;1868;48.918;9.438;2024-01-30T11:40:40;13.80;97.40
3705;DHT22;1868;48.918;9.438;2024-01-30T11:43:11;13.70;97.40
3705;DHT22;1868;48.918;9.438;2024-01-30T11:45:41;13.70;97.40
3705;DHT22;1868;48.918;9.438;2024-01-30T11:48:12;13.80;97.40
3705;DHT22;1868;48.918;9.438;2024-01-30T11:50:42;13.80;97.40
3705;DHT22;1868;48.918;9.438;2024-01-30T11:53:12;13.80;97.40
3705;DHT22;1868;48.918;9.438;2024-01-30T11:55:41;13.80;97.40
3705;DHT22;1868;48.918;9.438;2024-01-30T11:58:11;13.80;97.40
3705;DHT22;1868;48.918;9.438;2024-01-30T12:00:40;13.90;97.40
3705;DHT22;1868;48.918;9.438;2024-01-30T12:03:11;14.00;97.40
3705;DHT22;1868;48.918;9.438;2024-01-30T12:05:41;14.00;97.40
3705;DHT22;1868;48.918;9.438;2024-01-30T12:08:16;14.10;97.40
3705;DHT22;1868;48.918;9.438;2024-01-30T12:10:46;14.10;97.40
3705;DHT22;1868;48.918;9.438;2024-01-30T12:13:14;14.10;97.40
3705;DHT22;1868;48.918;9.438;2024-01-30T12:15:43;14.10;97.40
3705;DHT22;1868;48.918;9.438;2024-01-30T12:18:13;14.10;97.40
3705;DHT22;1868;48.918;9.438;2024-01-30T12:20:42;14.00;97.40
3705;DHT22;1868;48.918;9.438;2024-01-30T12:23:12;14.10;97.40
3705;DHT22;1868;48.918;9.438;2024-01-30T12:25:43;14.10;97.40
3705;DHT22;1868;48.918;9.438;2024-01-30T12:28:12;14.20;97.40
3705;DHT22;1868;48.918;9.438;2024-01-30T12:30:45;14.20;97.40
3705;DHT22;1868;48.918;9.438;2024-01-30T12:33:17;14.20;97.40
3705;DHT22;1868;48.918;9.438;2024-01-30T12:35:47;14.10;97.40
3705;DHT22;1868;48.918;9.438;2024-01-30T12:38:28;14.10;97.40
3705;DHT22;1868;48.918;9.438;2024-01-30T12:41:01;14.00;97.40
3705;DHT22;1868;48.918;9.438;2024-01-30T12:43:30;13.90;97.40
3705;DHT22;1868;48.918;9.438;2024-01-30T12:46:05;13.90;97.40
3705;DHT22;1868;48.918;9.438;2024-01-30T12:48:35;13.90;97.40
3705;DHT22;1868;48.918;9.438;2024-01-30T12:51:05;14.00;97.40
3705;DHT22;1868;48.918;9.438;2024-01-30T12:53:36;14.00;97.40
3705;DHT22;1868;48.918;9.438;2024-01-30T12:56:08;14.00;97.40
3705;DHT22;1868;48.918;9.438;2024-01-30T12:58:37;14.10;97.40
3705;DHT22;1868;48.918;9.438;2024-01-30T13:01:08;14.20;97.40
3705;DHT22;1868;48.918;9.438;2024-01-30T13:03:38;14.20;97.40
3705;DHT22;1868;48.918;9.438;2024-01-30T13:06:07;14.30;97.40
3705;DHT22;1868;48.918;9.438;2024-01-30T13:08:37;14.20;97.40
3705;DHT22;1868;48.918;9.438;2024-01-30T13:11:08;14.20;97.40
3705;DHT22;1868;48.918;9.438;2024-01-30T13:13:47;14.20;97.40
3705;DHT22;1868;48.918;9.438;2024-01-30T13:16:16;14.20;97.40
3705;DHT22;1868;48.918;9.438;2024-01-30T13:18:49;14.30;97.40
3705;DHT22;1868;48.918;9.438;2024-01-30T13:21:18;14.30;97.40
3705;DHT22;1868;48.918;9.438;2024-01-30T13:23:50;14.30;97.40
3705;DHT22;1868;48.918;9.438;2024-01-30T13:26:23;14.40;97.40
3705;DHT22;1868;48.918;9.438;2024-01-30T13:28:53;14.60;97.40
3705;DHT22;1868;48.918;9.438;2024-01-30T13:31:22;14.60;97.40
3705;DHT22;1868;48.918;9.438;2024-01-30T13:33:50;14.60;97.40
3705;DHT22;1868;48.918;9.438;2024-01-30T13:36:24;14.60;97.40
3705;DHT22;1868;48.918;9.438;2024-01-30T13:38:52;14.60;97.40
3705;DHT22;1868;48.918;9.438;2024-01-30T13:41:22;14.50;97.40
3705;DHT22;1868;48.918;9.438;2024-01-30T13:43:51;14.60;97.40
3705;DHT22;1868;48.918;9.438;2024-01-30T13:46:21;14.60;97.40
3705;DHT22;1868;48.918;9.438;2024-01-30T13:48:50;14.50;97.40
3705;DHT22;1868;48.918;9.438;2024-01-30T13:51:19;14.50;97.40
3705;DHT22;1868;48.918;9.438;2024-01-30T13:53:48;14.50;97.40
3705;DHT22;1868;48.918;9.438;2024-01-30T13:56:19;14.50;97.40
3705;DHT22;1868;48.918;9.438;2024-01-30T13:58:50;14.40;97.40
3705;DHT22;1868;48.918;9.438;2024-01-30T14:01:22;14.30;97.40
3705;DHT22;1868;48.918;9.438;2024-01-30T14:03:52;14.30;97.40
3705;DHT22;1868;48.918;9.438;2024-01-30T14:06:31;14.20;97.40
3705;DHT22;1868;48.918;9.438;2024-01-30T14:09:06;14.10;97.40
3705;DHT22;1868;48.918;9.438;2024-01-30T14:11:36;14.00;97.40
3705;DHT22;1868;48.918;9.438;2024-01-30T14:14:05;14.00;97.40
3705;DHT22;1868;48.918;9.438;2024-01-30T14:16:38;14.00;97.40
3705;DHT22;1868;48.918;9.438;2024-01-30T14:19:07;14.00;97.40
3705;DHT22;1868;48.918;9.438;2024-01-30T14:21:37;13.90;97.40
3705;DHT22;1868;48.918;9.438;2024-01-30T14:24:08;13.80;97.40
3705;DHT22;1868;48.918;9.438;2024-01-30T14:26:44;13.80;97.40
3705;DHT22;1868;48.918;9.438;2024-01-30T14:29:18;13.70;97.40
3705;DHT22;1868;48.918;9.438;2024-01-30T14:31:51;13.60;97.40
3705;DHT22;1868;48.918;9.438;2024-01-30T14:34:22;13.50;97.40
3705;DHT22;1868;48.918;9.438;2024-01-30T14:36:52;13.30;97.40
3705;DHT22;1868;48.918;9.438;2024-01-30T14:39:20;13.20;97.40
3705;DHT22;1868;48.918;9.438;2024-01-30T14:41:51;13.20;97.40
3705;DHT22;1868;48.918;9.438;2024-01-30T14:44:19;13.20;97.40
3705;DHT22;1868;48.918;9.438;2024-01-30T14:46:48;13.10;97.40
3705;DHT22;1868;48.918;9.438;2024-01-30T14:49:17;13.10;97.40
3705;DHT22;1868;48.918;9.438;2024-01-30T14:51:46;13.10;97.40
3705;DHT22;1868;48.918;9.438;2024-01-30T14:54:15;13.10;97.40
3705;DHT22;1868;48.918;9.438;2024-01-30T14:56:44;13.00;97.40
3705;DHT22;1868;48.918;9.438;2024-01-30T14:59:14;13.00;97.40
3705;DHT22;1868;48.918;9.438;2024-01-30T15:01:43;12.90;97.40
3705;DHT22;1868;48.918;9.438;2024-01-30T15:04:12;12.90;97.40
3705;DHT22;1868;48.918;9.438;2024-01-30T15:06:41;12.80;97.40
3705;DHT22;1868;48.918;9.438;2024-01-30T15:09:12;12.70;97.40
3705;DHT22;1868;48.918;9.438;2024-01-30T15:11:41;12.60;97.40
3705;DHT22;1868;48.918;9.438;2024-01-30T15:14:12;12.50;97.40
3705;DHT22;1868;48.918;9.438;2024-01-30T15:16:42;12.50;97.40
3705;DHT22;1868;48.918;9.438;2024-01-30T15:19:11;12.40;97.40
3705;DHT22;1868;48.918;9.438;2024-01-30T15:21:39;12.40;97.40
3705;DHT22;1868;48.918;9.438;2024-01-30T15:24:08;12.40;97.40
3705;DHT22;1868;48.918;9.438;2024-01-30T15:26:39;12.30;97.40
3705;DHT22;1868;48.918;9.438;2024-01-30T15:29:08;12.20;97.40
3705;DHT22;1868;48.918;9.438;2024-01-30T15:31:38;12.10;97.40
3705;DHT22;1868;48.918;9.438;2024-01-30T15:34:07;12.00;97.40
3705;DHT22;1868;48.918;9.438;2024-01-30T15:36:38;11.90;97.40
3705;DHT22;1868;48.918;9.438;2024-01-30T15:39:09;11.90;97.40
3705;DHT22;1868;48.918;9.438;2024-01-30T15:41:38;11.80;97.40
3705;DHT22;1868;48.918;9.438;2024-01-30T15:44:08;11.70;97.40
3705;DHT22;1868;48.918;9.438;2024-01-30T15:46:42;11.60;97.40
3705;DHT22;1868;48.918;9.438;2024-01-30T15:49:11;11.60;97.40
3705;DHT22;1868;48.918;9.438;2024-01-30T15:51:40;11.50;97.40
3705;DHT22;1868;48.918;9.438;2024-01-30T15:54:09;11.50;97.40
3705;DHT22;1868;48.918;9.438;2024-01-30T15:56:40;11.40;97.40
3705;DHT22;1868;48.918;9.438;2024-01-30T15:59:10;11.40;97.40
3705;DHT22;1868;48.918;9.438;2024-01-30T16:01:40;11.30;97.40
3705;DHT22;1868;48.918;9.438;2024-01-30T16:04:08;11.20;97.40
3705;DHT22;1868;48.918;9.438;2024-01-30T16:06:37;11.10;97.40
3705;DHT22;1868;48.918;9.438;2024-01-30T16:09:05;11.00;97.40
3705;DHT22;1868;48.918;9.438;2024-01-30T16:11:36;10.90;97.40
3705;DHT22;1868;48.918;9.438;2024-01-30T16:14:06;10.80;97.40
3705;DHT22;1868;48.918;9.438;2024-01-30T16:16:35;10.80;97.40
3705;DHT22;1868;48.918;9.438;2024-01-30T16:19:07;10.70;97.40
3705;DHT22;1868;48.918;9.438;2024-01-30T16:21:36;10.60;97.40
3705;DHT22;1868;48.918;9.438;2024-01-30T16:24:06;10.50;97.40
3705;DHT22;1868;48.918;9.438;2024-01-30T16:26:35;10.50;97.40
3705;DHT22;1868;48.918;9.438;2024-01-30T16:29:06;10.40;97.40
3705;DHT22;1868;48.918;9.438;2024-01-30T16:31:36;10.30;97.40